sensor_id;sensor_type;location;lat;lon;timestamp;pressure;altitude;pressure_sealevel;temperature;humidity
13604;BME280;24578;48.264;11.436;2023-04-02T00:01:49;95351.16;;;6.41;100.00
13604;BME280;24578;48.264;11.436;2023-04-02T00:08:51;95365.44;;;6.45;100.00
13604;BME280;24578;48.264;11.436;2023-04-02T00:12:18;95359.53;;;6.32;100.00
13604;BME280;24578;48.264;11.436;2023-04-02T00:15:43;95360.56;;;6.29;100.00
13604;BME280;24578;48.264;11.436;2023-04-02T00:19:13;95368.75;;;6.34;100.00
13604;BME280;24578;48.264;11.436;2023-04-02T00:22:43;95369.88;;;6.43;100.00
13604;BME280;24578;48.264;11.436;2023-04-02T00:29:57;95371.53;;;6.44;100.00
13604;BME280;24578;48.264;11.436;2023-04-02T00:33:22;95377.25;;;6.48;100.00
13604;BME280;24578;48.264;11.436;2023-04-02T00:36:45;95377.25;;;6.48;100.00
13604;BME280;24578;48.264;11.436;2023-04-02T00:40:18;95372.97;;;6.48;100.00
13604;BME280;24578;48.264;11.436;2023-04-02T00:43:43;95372.06;;;6.36;100.00
13604;BME280;24578;48.264;11.436;2023-04-02T00:47:21;95373.75;;;6.49;100.00
13604;BME280;24578;48.264;11.436;2023-04-02T00:50:45;95365.13;;;6.50;100.00
13604;BME280;24578;48.264;11.436;2023-04-02T00:54:11;95371.72;;;6.41;100.00
13604;BME280;24578;48.264;11.436;2023-04-02T00:57:36;95373.81;;;6.36;100.00
13604;BME280;24578;48.264;11.436;2023-04-02T01:01:02;95365.25;;;6.48;100.00
13604;BME280;24578;48.264;11.436;2023-04-02T01:04:33;95374.81;;;6.46;100.00
13604;BME280;24578;48.264;11.436;2023-04-02T01:15:36;95370.53;;;6.34;100.00
13604;BME280;24578;48.264;11.436;2023-04-02T01:26:45;95369.81;;;6.32;100.00
13604;BME280;24578;48.264;11.436;2023-04-02T01:30:10;95391.56;;;6.39;100.00
13604;BME280;24578;48.264;11.436;2023-04-02T01:33:34;95386.84;;;6.46;100.00
13604;BME280;24578;48.264;11.436;2023-04-02T01:44:04;95381.13;;;6.29;100.00
13604;BME280;24578;48.264;11.436;2023-04-02T01:47:28;95392.94;;;6.32;100.00
13604;BME280;24578;48.264;11.436;2023-04-02T01:50:53;95394.97;;;6.39;100.00
13604;BME280;24578;48.264;11.436;2023-04-02T01:54:16;95391.91;;;6.34;100.00
13604;BME280;24578;48.264;11.436;2023-04-02T01:57:42;95395.19;;;6.36;100.00
13604;BME280;24578;48.264;11.436;2023-04-02T02:01:11;95392.00;;;6.46;100.00
13604;BME280;24578;48.264;11.436;2023-04-02T02:04:34;95405.97;;;6.42;100.00
13604;BME280;24578;48.264;11.436;2023-04-02T02:07:57;95407.75;;;6.28;100.00
13604;BME280;24578;48.264;11.436;2023-04-02T02:11:25;95399.31;;;6.26;100.00
13604;BME280;24578;48.264;11.436;2023-04-02T02:14:49;95415.13;;;6.46;100.00
13604;BME280;24578;48.264;11.436;2023-04-02T02:18:18;95417.41;;;6.37;100.00
13604;BME280;24578;48.264;11.436;2023-04-02T02:21:45;95403.94;;;6.34;100.00
13604;BME280;24578;48.264;11.436;2023-04-02T02:25:30;95409.50;;;6.28;100.00
13604;BME280;24578;48.264;11.436;2023-04-02T02:28:55;95417.72;;;6.33;100.00
13604;BME280;24578;48.264;11.436;2023-04-02T02:32:22;95433.66;;;6.25;100.00
13604;BME280;24578;48.264;11.436;2023-04-02T02:36:00;95430.88;;;6.28;100.00
13604;BME280;24578;48.264;11.436;2023-04-02T02:39:32;95436.22;;;6.12;100.00
13604;BME280;24578;48.264;11.436;2023-04-02T02:43:00;95434.19;;;6.17;100.00
13604;BME280;24578;48.264;11.436;2023-04-02T02:46:26;95438.19;;;6.21;100.00
13604;BME280;24578;48.264;11.436;2023-04-02T02:49:54;95438.06;;;6.23;100.00
13604;BME280;24578;48.264;11.436;2023-04-02T02:53:23;95454.44;;;6.35;100.00
13604;BME280;24578;48.264;11.436;2023-04-02T02:56:50;95459.34;;;6.25;100.00
13604;BME280;24578;48.264;11.436;2023-04-02T03:00:14;95461.41;;;6.20;100.00
13604;BME280;24578;48.264;11.436;2023-04-02T03:03:39;95460.19;;;6.13;100.00
13604;BME280;24578;48.264;11.436;2023-04-02T03:07:02;95459.78;;;6.32;100.00
13604;BME280;24578;48.264;11.436;2023-04-02T03:10:44;95461.84;;;6.14;100.00
13604;BME280;24578;48.264;11.436;2023-04-02T03:14:21;95460.69;;;6.18;100.00
13604;BME280;24578;48.264;11.436;2023-04-02T03:21:47;95471.47;;;6.10;100.00
13604;BME280;24578;48.264;11.436;2023-04-02T03:28:56;95474.34;;;6.05;100.00
13604;BME280;24578;48.264;11.436;2023-04-02T03:32:25;95484.03;;;6.02;100.00
13604;BME280;24578;48.264;11.436;2023-04-02T03:35:58;95491.09;;;5.98;100.00
13604;BME280;24578;48.264;11.436;2023-04-02T03:43:10;95488.31;;;6.01;100.00
13604;BME280;24578;48.264;11.436;2023-04-02T03:46:39;95491.16;;;5.97;100.00
13604;BME280;24578;48.264;11.436;2023-04-02T03:53:45;95490.16;;;5.99;100.00
13604;BME280;24578;48.264;11.436;2023-04-02T03:57:32;95497.34;;;5.94;100.00
13604;BME280;24578;48.264;11.436;2023-04-02T04:01:07;95496.72;;;5.90;100.00
13604;BME280;24578;48.264;11.436;2023-04-02T04:04:39;95502.66;;;5.91;100.00
13604;BME280;24578;48.264;11.436;2023-04-02T04:08:33;95509.03;;;5.85;100.00
13604;BME280;24578;48.264;11.436;2023-04-02T04:12:13;95510.06;;;5.95;100.00
13604;BME280;24578;48.264;11.436;2023-04-02T04:16:01;95508.41;;;5.82;100.00
13604;BME280;24578;48.264;11.436;2023-04-02T04:19:45;95512.91;;;5.78;100.00
13604;BME280;24578;48.264;11.436;2023-04-02T04:23:23;95508.41;;;5.82;100.00
13604;BME280;24578;48.264;11.436;2023-04-02T04:27:23;95519.31;;;5.85;100.00
13604;BME280;24578;48.264;11.436;2023-04-02T04:31:08;95524.56;;;5.84;100.00
13604;BME280;24578;48.264;11.436;2023-04-02T04:34:45;95528.56;;;5.88;100.00
13604;BME280;24578;48.264;11.436;2023-04-02T04:38:40;95538.94;;;5.86;100.00
13604;BME280;24578;48.264;11.436;2023-04-02T04:42:12;95542.38;;;6.00;100.00
13604;BME280;24578;48.264;11.436;2023-04-02T04:45:47;95549.50;;;5.82;100.00
13604;BME280;24578;48.264;11.436;2023-04-02T04:49:19;95558.31;;;5.77;100.00
13604;BME280;24578;48.264;11.436;2023-04-02T04:52:43;95559.28;;;5.89;100.00
13604;BME280;24578;48.264;11.436;2023-04-02T04:56:05;95568.31;;;5.82;100.00
13604;BME280;24578;48.264;11.436;2023-04-02T04:59:38;95563.69;;;5.87;100.00
13604;BME280;24578;48.264;11.436;2023-04-02T05:03:31;95566.75;;;5.79;100.00
13604;BME280;24578;48.264;11.436;2023-04-02T05:07:04;95570.97;;;5.81;100.00
13604;BME280;24578;48.264;11.436;2023-04-02T05:13:58;95584.81;;;5.78;100.00
13604;BME280;24578;48.264;11.436;2023-04-02T05:17:35;95580.72;;;5.75;100.00
13604;BME280;24578;48.264;11.436;2023-04-02T05:21:22;95587.88;;;5.70;100.00
13604;BME280;24578;48.264;11.436;2023-04-02T05:24:54;95592.75;;;5.88;100.00
13604;BME280;24578;48.264;11.436;2023-04-02T05:28:29;95596.56;;;5.82;100.00
13604;BME280;24578;48.264;11.436;2023-04-02T05:35:34;95604.56;;;5.77;100.00
13604;BME280;24578;48.264;11.436;2023-04-02T05:38:58;95601.63;;;5.84;100.00
13604;BME280;24578;48.264;11.436;2023-04-02T05:42:23;95605.19;;;5.81;100.00
13604;BME280;24578;48.264;11.436;2023-04-02T05:45:53;95609.22;;;5.85;100.00
13604;BME280;24578;48.264;11.436;2023-04-02T05:49:25;95612.69;;;5.84;100.00
13604;BME280;24578;48.264;11.436;2023-04-02T05:56:40;95623.50;;;6.04;100.00
13604;BME280;24578;48.264;11.436;2023-04-02T06:00:08;95629.88;;;6.11;100.00
13604;BME280;24578;48.264;11.436;2023-04-02T06:03:43;95628.31;;;6.08;100.00
13604;BME280;24578;48.264;11.436;2023-04-02T06:07:25;95628.81;;;6.01;100.00
13604;BME280;24578;48.264;11.436;2023-04-02T06:11:05;95634.81;;;6.14;100.00
13604;BME280;24578;48.264;11.436;2023-04-02T06:14:28;95632.38;;;5.98;100.00
13604;BME280;24578;48.264;11.436;2023-04-02T06:17:58;95646.50;;;6.05;100.00
13604;BME280;24578;48.264;11.436;2023-04-02T06:21:20;95639.63;;;6.06;100.00
13604;BME280;24578;48.264;11.436;2023-04-02T06:24:46;95643.69;;;6.23;100.00
13604;BME280;24578;48.264;11.436;2023-04-02T06:28:25;95648.03;;;6.35;100.00
13604;BME280;24578;48.264;11.436;2023-04-02T06:31:55;95661.66;;;6.50;100.00
13604;BME280;24578;48.264;11.436;2023-04-02T06:35:18;95663.84;;;6.69;100.00
13604;BME280;24578;48.264;11.436;2023-04-02T06:38:42;95670.66;;;6.83;100.00
13604;BME280;24578;48.264;11.436;2023-04-02T06:42:18;95672.28;;;6.72;100.00
13604;BME280;24578;48.264;11.436;2023-04-02T06:45:45;95673.22;;;6.83;100.00
13604;BME280;24578;48.264;11.436;2023-04-02T06:49:28;95686.50;;;7.16;100.00
13604;BME280;24578;48.264;11.436;2023-04-02T06:53:04;95690.81;;;7.28;100.00
13604;BME280;24578;48.264;11.436;2023-04-02T06:56:44;95689.56;;;7.34;100.00
13604;BME280;24578;48.264;11.436;2023-04-02T07:03:58;95697.50;;;7.44;100.00
13604;BME280;24578;48.264;11.436;2023-04-02T07:07:20;95705.28;;;7.68;100.00
13604;BME280;24578;48.264;11.436;2023-04-02T07:10:42;95705.63;;;7.64;100.00
13604;BME280;24578;48.264;11.436;2023-04-02T07:14:04;95706.09;;;8.19;100.00
13604;BME280;24578;48.264;11.436;2023-04-02T07:17:27;95708.69;;;8.06;100.00
13604;BME280;24578;48.264;11.436;2023-04-02T07:20:49;95716.22;;;8.09;100.00
13604;BME280;24578;48.264;11.436;2023-04-02T07:24:11;95719.41;;;8.13;100.00
13604;BME280;24578;48.264;11.436;2023-04-02T07:27:33;95729.94;;;8.34;100.00
13604;BME280;24578;48.264;11.436;2023-04-02T07:30:55;95720.69;;;8.56;100.00
13604;BME280;24578;48.264;11.436;2023-04-02T07:34:17;95727.81;;;8.76;100.00
13604;BME280;24578;48.264;11.436;2023-04-02T07:37:38;95729.69;;;8.74;100.00
13604;BME280;24578;48.264;11.436;2023-04-02T07:41:05;95718.72;;;8.95;100.00
13604;BME280;24578;48.264;11.436;2023-04-02T07:44:27;95726.44;;;8.83;100.00
13604;BME280;24578;48.264;11.436;2023-04-02T07:47:49;95737.97;;;9.02;100.00
13604;BME280;24578;48.264;11.436;2023-04-02T07:54:37;95745.78;;;9.25;100.00
13604;BME280;24578;48.264;11.436;2023-04-02T07:58:00;95760.34;;;9.26;100.00
13604;BME280;24578;48.264;11.436;2023-04-02T08:01:25;95759.84;;;9.09;100.00
13604;BME280;24578;48.264;11.436;2023-04-02T08:04:48;95762.16;;;9.48;100.00
13604;BME280;24578;48.264;11.436;2023-04-02T08:08:11;95769.66;;;9.74;100.00
13604;BME280;24578;48.264;11.436;2023-04-02T08:11:33;95760.72;;;10.24;100.00
13604;BME280;24578;48.264;11.436;2023-04-02T08:14:55;95756.28;;;10.58;100.00
13604;BME280;24578;48.264;11.436;2023-04-02T08:18:21;95757.50;;;11.08;100.00
13604;BME280;24578;48.264;11.436;2023-04-02T08:21:43;95760.47;;;11.46;100.00
13604;BME280;24578;48.264;11.436;2023-04-02T08:25:05;95763.16;;;11.65;100.00
13604;BME280;24578;48.264;11.436;2023-04-02T08:28:27;95771.75;;;12.28;100.00
13604;BME280;24578;48.264;11.436;2023-04-02T08:31:50;95776.44;;;12.73;100.00
13604;BME280;24578;48.264;11.436;2023-04-02T08:35:15;95769.34;;;12.75;100.00
13604;BME280;24578;48.264;11.436;2023-04-02T08:38:38;95777.09;;;12.36;100.00
13604;BME280;24578;48.264;11.436;2023-04-02T08:46:26;95785.88;;;13.53;100.00
13604;BME280;24578;48.264;11.436;2023-04-02T08:50:53;95789.34;;;13.91;100.00
13604;BME280;24578;48.264;11.436;2023-04-02T08:54:00;95783.72;;;14.42;94.92
13604;BME280;24578;48.264;11.436;2023-04-02T08:57:50;95785.78;;;14.20;96.29
13604;BME280;24578;48.264;11.436;2023-04-02T09:01:25;95785.97;;;15.19;91.18
13604;BME280;24578;48.264;11.436;2023-04-02T09:04:48;95781.69;;;16.15;80.62
13604;BME280;24578;48.264;11.436;2023-04-02T09:08:18;95770.13;;;16.18;73.58
13604;BME280;24578;48.264;11.436;2023-04-02T09:12:01;95785.69;;;14.86;76.75
13604;BME280;24578;48.264;11.436;2023-04-02T09:15:34;95790.16;;;14.94;76.68
13604;BME280;24578;48.264;11.436;2023-04-02T09:18:56;95792.91;;;15.10;74.60
13604;BME280;24578;48.264;11.436;2023-04-02T09:22:27;95797.56;;;14.24;79.25
13604;BME280;24578;48.264;11.436;2023-04-02T09:25:52;95800.50;;;14.57;77.63
13604;BME280;24578;48.264;11.436;2023-04-02T09:29:31;95807.94;;;15.34;75.61
13604;BME280;24578;48.264;11.436;2023-04-02T09:33:03;95812.63;;;15.31;72.14
13604;BME280;24578;48.264;11.436;2023-04-02T09:36:34;95816.16;;;14.85;74.91
13604;BME280;24578;48.264;11.436;2023-04-02T09:40:31;95812.34;;;14.98;71.44
13604;BME280;24578;48.264;11.436;2023-04-02T09:44:18;95828.38;;;14.19;74.30
13604;BME280;24578;48.264;11.436;2023-04-02T09:47:41;95830.31;;;14.17;74.48
13604;BME280;24578;48.264;11.436;2023-04-02T09:51:16;95836.50;;;13.59;79.66
13604;BME280;24578;48.264;11.436;2023-04-02T09:54:37;95839.63;;;13.03;82.78
13604;BME280;24578;48.264;11.436;2023-04-02T09:58:13;95838.41;;;13.27;82.55
13604;BME280;24578;48.264;11.436;2023-04-02T10:01:38;95836.22;;;13.13;82.66
13604;BME280;24578;48.264;11.436;2023-04-02T10:05:05;95841.00;;;13.37;81.22
13604;BME280;24578;48.264;11.436;2023-04-02T10:08:29;95844.00;;;13.81;79.99
13604;BME280;24578;48.264;11.436;2023-04-02T10:11:54;95848.84;;;13.47;79.59
13604;BME280;24578;48.264;11.436;2023-04-02T10:15:26;95848.53;;;13.40;81.45
13604;BME280;24578;48.264;11.436;2023-04-02T10:18:58;95844.56;;;13.65;80.80
13604;BME280;24578;48.264;11.436;2023-04-02T10:22:22;95843.22;;;13.51;80.03
13604;BME280;24578;48.264;11.436;2023-04-02T10:26:54;95843.47;;;13.09;81.97
13604;BME280;24578;48.264;11.436;2023-04-02T10:29:54;95849.41;;;12.51;85.24
13604;BME280;24578;48.264;11.436;2023-04-02T10:33:31;95853.44;;;12.33;88.33
13604;BME280;24578;48.264;11.436;2023-04-02T10:37:01;95856.78;;;11.93;90.49
13604;BME280;24578;48.264;11.436;2023-04-02T10:40:35;95856.16;;;11.80;93.29
13604;BME280;24578;48.264;11.436;2023-04-02T10:44:23;95867.84;;;11.32;100.00
13604;BME280;24578;48.264;11.436;2023-04-02T10:48:11;95876.13;;;10.81;100.00
13604;BME280;24578;48.264;11.436;2023-04-02T10:55:21;95880.47;;;10.92;100.00
13604;BME280;24578;48.264;11.436;2023-04-02T10:58:53;95881.66;;;10.77;100.00
13604;BME280;24578;48.264;11.436;2023-04-02T11:10:06;95895.22;;;10.46;100.00
13604;BME280;24578;48.264;11.436;2023-04-02T11:13:52;95888.09;;;10.94;100.00
13604;BME280;24578;48.264;11.436;2023-04-02T11:17:17;95886.75;;;11.65;100.00
13604;BME280;24578;48.264;11.436;2023-04-02T11:31:47;95876.53;;;15.35;88.68
13604;BME280;24578;48.264;11.436;2023-04-02T11:38:51;95880.91;;;15.89;78.05
13604;BME280;24578;48.264;11.436;2023-04-02T11:42:28;95889.75;;;15.78;75.67
13604;BME280;24578;48.264;11.436;2023-04-02T11:45:53;95895.97;;;15.95;74.72
13604;BME280;24578;48.264;11.436;2023-04-02T11:49:37;95888.94;;;15.95;72.16
13604;BME280;24578;48.264;11.436;2023-04-02T11:53:23;95903.91;;;15.31;72.62
13604;BME280;24578;48.264;11.436;2023-04-02T11:56:56;95908.09;;;14.68;77.31
13604;BME280;24578;48.264;11.436;2023-04-02T12:00:27;95908.41;;;14.55;79.57
13604;BME280;24578;48.264;11.436;2023-04-02T12:04:15;95907.13;;;14.97;77.32
13604;BME280;24578;48.264;11.436;2023-04-02T12:08:01;95904.81;;;16.02;74.60
13604;BME280;24578;48.264;11.436;2023-04-02T12:11:37;95903.88;;;15.85;73.08
13604;BME280;24578;48.264;11.436;2023-04-02T12:14:59;95910.00;;;15.94;74.63
13604;BME280;24578;48.264;11.436;2023-04-02T12:18:23;95917.34;;;15.62;78.52
13604;BME280;24578;48.264;11.436;2023-04-02T12:21:45;95915.25;;;15.66;77.02
13604;BME280;24578;48.264;11.436;2023-04-02T12:25:29;95925.94;;;15.36;78.09
13604;BME280;24578;48.264;11.436;2023-04-02T12:28:52;95938.50;;;14.67;81.28
13604;BME280;24578;48.264;11.436;2023-04-02T12:32:24;95933.38;;;13.90;89.87
13604;BME280;24578;48.264;11.436;2023-04-02T12:35:54;95933.13;;;13.83;94.96
13604;BME280;24578;48.264;11.436;2023-04-02T12:39:17;95945.53;;;13.99;93.74
13604;BME280;24578;48.264;11.436;2023-04-02T12:42:39;95938.75;;;14.36;92.70
13604;BME280;24578;48.264;11.436;2023-04-02T12:46:04;95949.53;;;14.04;98.01
13604;BME280;24578;48.264;11.436;2023-04-02T12:49:36;95957.09;;;12.97;100.00
13604;BME280;24578;48.264;11.436;2023-04-02T12:52:59;95953.78;;;12.02;100.00
13604;BME280;24578;48.264;11.436;2023-04-02T12:56:23;95958.56;;;11.53;100.00
13604;BME280;24578;48.264;11.436;2023-04-02T12:59:45;95958.47;;;11.10;100.00
13604;BME280;24578;48.264;11.436;2023-04-02T13:03:20;95958.16;;;10.81;100.00
13604;BME280;24578;48.264;11.436;2023-04-02T13:06:49;95958.41;;;10.66;100.00
13604;BME280;24578;48.264;11.436;2023-04-02T13:10:24;95952.06;;;10.48;100.00
13604;BME280;24578;48.264;11.436;2023-04-02T13:13:48;95957.69;;;10.42;100.00
13604;BME280;24578;48.264;11.436;2023-04-02T13:21:21;95948.09;;;10.19;100.00
13604;BME280;24578;48.264;11.436;2023-04-02T13:24:44;95964.13;;;10.36;100.00
13604;BME280;24578;48.264;11.436;2023-04-02T13:28:08;95971.50;;;10.18;100.00
13604;BME280;24578;48.264;11.436;2023-04-02T13:31:31;95979.91;;;9.62;100.00
13604;BME280;24578;48.264;11.436;2023-04-02T13:34:53;95978.22;;;9.49;100.00
13604;BME280;24578;48.264;11.436;2023-04-02T13:38:15;95971.88;;;9.29;100.00
13604;BME280;24578;48.264;11.436;2023-04-02T13:41:43;95975.28;;;9.05;100.00
13604;BME280;24578;48.264;11.436;2023-04-02T13:48:45;95978.53;;;8.83;100.00
13604;BME280;24578;48.264;11.436;2023-04-02T13:52:13;95974.84;;;8.74;100.00
13604;BME280;24578;48.264;11.436;2023-04-02T13:55:39;95975.09;;;8.95;100.00
13604;BME280;24578;48.264;11.436;2023-04-02T13:59:02;95975.25;;;9.18;100.00
13604;BME280;24578;48.264;11.436;2023-04-02T14:02:25;95980.31;;;9.44;100.00
13604;BME280;24578;48.264;11.436;2023-04-02T14:09:28;95999.47;;;9.77;100.00
13604;BME280;24578;48.264;11.436;2023-04-02T14:27:23;96022.69;;;9.04;100.00
13604;BME280;24578;48.264;11.436;2023-04-02T14:31:02;96024.94;;;9.09;100.00
13604;BME280;24578;48.264;11.436;2023-04-02T14:38:28;96025.34;;;9.53;100.00
13604;BME280;24578;48.264;11.436;2023-04-02T14:45:31;96033.50;;;9.95;100.00
13604;BME280;24578;48.264;11.436;2023-04-02T14:49:19;96041.00;;;9.87;100.00
13604;BME280;24578;48.264;11.436;2023-04-02T14:52:48;96039.00;;;9.42;100.00
13604;BME280;24578;48.264;11.436;2023-04-02T14:56:14;96041.03;;;9.12;100.00
13604;BME280;24578;48.264;11.436;2023-04-02T15:03:29;96033.81;;;9.05;100.00
13604;BME280;24578;48.264;11.436;2023-04-02T15:07:01;96040.44;;;9.09;100.00
13604;BME280;24578;48.264;11.436;2023-04-02T15:10:31;96055.94;;;9.09;100.00
13604;BME280;24578;48.264;11.436;2023-04-02T15:17:40;96061.53;;;9.03;100.00
13604;BME280;24578;48.264;11.436;2023-04-02T15:24:40;96069.59;;;8.72;100.00
13604;BME280;24578;48.264;11.436;2023-04-02T15:28:18;96082.53;;;8.45;100.00
13604;BME280;24578;48.264;11.436;2023-04-02T15:31:45;96094.56;;;8.18;100.00
13604;BME280;24578;48.264;11.436;2023-04-02T15:35:26;96104.06;;;7.90;100.00
13604;BME280;24578;48.264;11.436;2023-04-02T15:42:32;96099.16;;;7.45;100.00
13604;BME280;24578;48.264;11.436;2023-04-02T15:49:44;96112.25;;;7.55;100.00
13604;BME280;24578;48.264;11.436;2023-04-02T15:53:23;96115.41;;;7.60;100.00
13604;BME280;24578;48.264;11.436;2023-04-02T15:56:58;96121.47;;;7.59;100.00
13604;BME280;24578;48.264;11.436;2023-04-02T16:00:31;96123.97;;;7.61;100.00
13604;BME280;24578;48.264;11.436;2023-04-02T16:04:41;96131.59;;;7.62;100.00
13604;BME280;24578;48.264;11.436;2023-04-02T16:08:34;96134.19;;;7.48;100.00
13604;BME280;24578;48.264;11.436;2023-04-02T16:12:15;96139.81;;;7.40;100.00
13604;BME280;24578;48.264;11.436;2023-04-02T16:15:50;96139.53;;;7.45;100.00
13604;BME280;24578;48.264;11.436;2023-04-02T16:19:35;96143.41;;;7.38;100.00
13604;BME280;24578;48.264;11.436;2023-04-02T16:23:11;96155.53;;;7.36;100.00
13604;BME280;24578;48.264;11.436;2023-04-02T16:30:34;96160.88;;;7.32;100.00
13604;BME280;24578;48.264;11.436;2023-04-02T16:37:55;96174.84;;;7.14;100.00
13604;BME280;24578;48.264;11.436;2023-04-02T16:57:29;96214.84;;;6.44;100.00
13604;BME280;24578;48.264;11.436;2023-04-02T17:01:24;96227.00;;;6.26;100.00
13604;BME280;24578;48.264;11.436;2023-04-02T17:08:30;96231.78;;;6.32;100.00
13604;BME280;24578;48.264;11.436;2023-04-02T17:12:31;96232.28;;;6.23;100.00
13604;BME280;24578;48.264;11.436;2023-04-02T17:16:18;96236.09;;;6.16;100.00
13604;BME280;24578;48.264;11.436;2023-04-02T17:19:43;96255.03;;;6.15;100.00
13604;BME280;24578;48.264;11.436;2023-04-02T17:23:05;96251.03;;;6.09;100.00
13604;BME280;24578;48.264;11.436;2023-04-02T17:26:30;96267.44;;;6.06;100.00
13604;BME280;24578;48.264;11.436;2023-04-02T17:33:27;96287.72;;;5.95;100.00
13604;BME280;24578;48.264;11.436;2023-04-02T17:37:37;96283.63;;;5.75;100.00
13604;BME280;24578;48.264;11.436;2023-04-02T17:45:19;96297.03;;;5.64;100.00
13604;BME280;24578;48.264;11.436;2023-04-02T17:48:46;96313.38;;;5.45;100.00
13604;BME280;24578;48.264;11.436;2023-04-02T17:52:37;96313.97;;;5.51;100.00
13604;BME280;24578;48.264;11.436;2023-04-02T17:56:29;96328.63;;;5.48;100.00
13604;BME280;24578;48.264;11.436;2023-04-02T18:19:14;96378.06;;;5.17;100.00
13604;BME280;24578;48.264;11.436;2023-04-02T18:30:12;96401.97;;;5.00;100.00
13604;BME280;24578;48.264;11.436;2023-04-02T18:37:55;96413.00;;;4.83;100.00
13604;BME280;24578;48.264;11.436;2023-04-02T18:51:59;96441.78;;;4.51;100.00
13604;BME280;24578;48.264;11.436;2023-04-02T18:55:27;96443.53;;;4.51;100.00
13604;BME280;24578;48.264;11.436;2023-04-02T19:06:34;96456.06;;;4.38;100.00
13604;BME280;24578;48.264;11.436;2023-04-02T19:10:06;96458.88;;;4.32;100.00
13604;BME280;24578;48.264;11.436;2023-04-02T19:13:29;96457.28;;;4.29;100.00
13604;BME280;24578;48.264;11.436;2023-04-02T19:17:08;96467.53;;;4.29;100.00
13604;BME280;24578;48.264;11.436;2023-04-02T19:20:45;96475.97;;;4.12;100.00
13604;BME280;24578;48.264;11.436;2023-04-02T19:28:23;96505.59;;;3.97;100.00
13604;BME280;24578;48.264;11.436;2023-04-02T19:35:38;96509.91;;;3.96;100.00
13604;BME280;24578;48.264;11.436;2023-04-02T19:42:54;96510.97;;;3.91;100.00
13604;BME280;24578;48.264;11.436;2023-04-02T19:46:16;96537.34;;;3.93;100.00
13604;BME280;24578;48.264;11.436;2023-04-02T19:49:38;96528.97;;;3.89;100.00
13604;BME280;24578;48.264;11.436;2023-04-02T19:52:59;96540.53;;;3.77;100.00
13604;BME280;24578;48.264;11.436;2023-04-02T19:56:21;96545.66;;;3.77;100.00
13604;BME280;24578;48.264;11.436;2023-04-02T19:59:43;96545.97;;;3.70;100.00
13604;BME280;24578;48.264;11.436;2023-04-02T20:03:05;96549.38;;;3.70;100.00
13604;BME280;24578;48.264;11.436;2023-04-02T20:06:26;96551.56;;;3.57;100.00
13604;BME280;24578;48.264;11.436;2023-04-02T20:09:50;96560.03;;;3.59;100.00
13604;BME280;24578;48.264;11.436;2023-04-02T20:13:12;96555.03;;;3.56;100.00
13604;BME280;24578;48.264;11.436;2023-04-02T20:16:34;96568.09;;;3.50;100.00
13604;BME280;24578;48.264;11.436;2023-04-02T20:19:57;96564.09;;;3.43;100.00
13604;BME280;24578;48.264;11.436;2023-04-02T20:23:19;96580.53;;;3.35;100.00
13604;BME280;24578;48.264;11.436;2023-04-02T20:26:41;96580.03;;;3.27;100.00
13604;BME280;24578;48.264;11.436;2023-04-02T20:30:03;96586.03;;;3.26;100.00
13604;BME280;24578;48.264;11.436;2023-04-02T20:33:26;96579.13;;;3.28;100.00
13604;BME280;24578;48.264;11.436;2023-04-02T20:36:48;96597.53;;;3.14;100.00
13604;BME280;24578;48.264;11.436;2023-04-02T20:40:10;96606.34;;;3.07;100.00
13604;BME280;24578;48.264;11.436;2023-04-02T20:43:32;96611.72;;;2.99;100.00
13604;BME280;24578;48.264;11.436;2023-04-02T20:46:54;96603.19;;;3.00;100.00
13604;BME280;24578;48.264;11.436;2023-04-02T20:50:16;96603.38;;;2.94;100.00
13604;BME280;24578;48.264;11.436;2023-04-02T20:53:38;96626.63;;;2.88;100.00
13604;BME280;24578;48.264;11.436;2023-04-02T20:57:00;96628.06;;;2.95;100.00
13604;BME280;24578;48.264;11.436;2023-04-02T21:00:22;96634.13;;;2.93;100.00
13604;BME280;24578;48.264;11.436;2023-04-02T21:03:43;96643.06;;;2.81;100.00
13604;BME280;24578;48.264;11.436;2023-04-02T21:07:05;96648.63;;;2.92;100.00
13604;BME280;24578;48.264;11.436;2023-04-02T21:10:27;96650.38;;;2.92;100.00
13604;BME280;24578;48.264;11.436;2023-04-02T21:13:49;96649.75;;;2.85;100.00
13604;BME280;24578;48.264;11.436;2023-04-02T21:17:11;96662.72;;;2.79;100.00
13604;BME280;24578;48.264;11.436;2023-04-02T21:20:33;96666.69;;;2.87;100.00
13604;BME280;24578;48.264;11.436;2023-04-02T21:23:59;96670.22;;;2.85;100.00
13604;BME280;24578;48.264;11.436;2023-04-02T21:27:21;96674.63;;;2.80;100.00
13604;BME280;24578;48.264;11.436;2023-04-02T21:30:46;96679.47;;;2.62;100.00
13604;BME280;24578;48.264;11.436;2023-04-02T21:34:12;96680.09;;;2.69;100.00
13604;BME280;24578;48.264;11.436;2023-04-02T21:37:34;96662.28;;;2.67;100.00
13604;BME280;24578;48.264;11.436;2023-04-02T21:40:56;96676.13;;;2.60;100.00
13604;BME280;24578;48.264;11.436;2023-04-02T21:44:20;96674.34;;;2.64;100.00
13604;BME280;24578;48.264;11.436;2023-04-02T21:47:42;96685.19;;;2.70;100.00
13604;BME280;24578;48.264;11.436;2023-04-02T21:51:09;96679.56;;;2.59;100.00
13604;BME280;24578;48.264;11.436;2023-04-02T21:54:31;96681.84;;;2.68;100.00
13604;BME280;24578;48.264;11.436;2023-04-02T21:57:53;96685.13;;;2.72;100.00
13604;BME280;24578;48.264;11.436;2023-04-02T22:01:17;96682.88;;;2.63;100.00
13604;BME280;24578;48.264;11.436;2023-04-02T22:04:39;96684.03;;;2.54;100.00
13604;BME280;24578;48.264;11.436;2023-04-02T22:08:01;96695.91;;;2.55;100.00
13604;BME280;24578;48.264;11.436;2023-04-02T22:11:26;96697.78;;;2.50;100.00
13604;BME280;24578;48.264;11.436;2023-04-02T22:14:48;96689.84;;;2.57;100.00
13604;BME280;24578;48.264;11.436;2023-04-02T22:18:10;96706.31;;;2.49;100.00